Time;durP1;ratioP1;P1;durP2;ratioP2;P2;SDS_P1;SDS_P2;PMS_P1;PMS_P2;Temp;Humidity;BMP_temperature;BMP_pressure;BME280_temperature;BME280_humidity;BME280_pressure;Samples;Min_cycle;Max_cycle;Signal;HPM_P1;HPM_P2
2022/10/05 00:01:47;;;;;;;21.73;9.90;;;;;;;10.81;85.11;101277.95;1686636;84;25982;-86
2022/10/05 00:04:23;;;;;;;23.35;10.40;;;;;;;10.78;85.11;101272.08;1684479;84;26327;-87
2022/10/05 00:07:15;;;;;;;22.17;9.68;;;;;;;10.79;85.16;101265.72;1681421;84;26507;-87
2022/10/05 00:09:44;;;;;;;16.67;9.50;;;;;;;10.80;85.22;101264.20;1682793;84;26056;-86
2022/10/05 00:12:19;;;;;;;15.25;9.38;;;;;;;10.82;85.17;101264.86;1674101;84;27454;-87
2022/10/05 00:14:50;;;;;;;14.00;9.00;;;;;;;10.81;85.10;101256.51;1644359;86;25893;-86
2022/10/05 00:17:25;;;;;;;17.30;9.33;;;;;;;10.82;85.03;101250.13;1677080;84;25709;-86
2022/10/05 00:19:53;;;;;;;14.58;9.18;;;;;;;10.81;84.91;101247.13;1684597;84;25872;-86
2022/10/05 00:22:25;;;;;;;17.12;10.48;;;;;;;10.81;84.95;101241.77;1679696;84;26559;-86
2022/10/05 00:25:01;;;;;;;15.15;9.13;;;;;;;10.80;84.91;101244.59;1667378;85;27563;-86
2022/10/05 00:27:35;;;;;;;16.67;9.23;;;;;;;10.80;84.93;101237.40;1662443;84;25803;-87
2022/10/05 00:30:17;;;;;;;16.65;9.43;;;;;;;10.78;84.93;101242.09;1687506;84;25344;-89
2022/10/05 00:32:44;;;;;;;16.73;8.68;;;;;;;10.77;85.02;101252.50;1646939;84;25538;-88
2022/10/05 00:35:12;;;;;;;16.52;10.25;;;;;;;10.76;85.05;101256.67;1656378;84;25850;-86
2022/10/05 00:37:39;;;;;;;15.43;9.25;;;;;;;10.75;85.15;101245.64;1691448;84;27445;-88
2022/10/05 00:40:26;;;;;;;16.87;8.80;;;;;;;10.76;85.24;101251.31;1693775;84;25847;-87
2022/10/05 00:43:04;;;;;;;16.55;8.48;;;;;;;10.75;85.23;101246.48;1648535;84;25794;-88
2022/10/05 00:45:39;;;;;;;17.80;9.08;;;;;;;10.71;85.26;101255.03;1677505;84;25804;-87
2022/10/05 00:48:32;;;;;;;18.10;9.90;;;;;;;10.69;85.45;101249.01;1685106;84;25806;-87
2022/10/05 00:51:23;;;;;;;18.75;10.40;;;;;;;10.68;85.43;101252.19;1692926;84;27627;-87
2022/10/05 00:54:27;;;;;;;17.77;8.43;;;;;;;10.70;85.58;101252.00;1680798;84;25786;-87
2022/10/05 00:57:05;;;;;;;17.20;8.95;;;;;;;10.71;85.66;101252.35;1691467;84;25809;-87
2022/10/05 00:59:42;;;;;;;15.55;10.25;;;;;;;10.69;85.66;101249.01;1684445;84;25921;-87
2022/10/05 01:02:37;;;;;;;19.52;9.78;;;;;;;10.68;85.77;101248.16;1661109;84;25930;-87
2022/10/05 01:05:21;;;;;;;17.05;10.08;;;;;;;10.70;85.80;101245.30;1683494;84;27565;-86
2022/10/05 01:08:12;;;;;;;18.15;10.08;;;;;;;10.68;85.83;101257.55;1685503;84;25528;-88
2022/10/05 01:10:50;;;;;;;16.37;9.15;;;;;;;10.68;85.98;101254.02;1635548;86;25923;-87
2022/10/05 01:13:40;;;;;;;16.27;9.35;;;;;;;10.71;86.03;101261.73;1680779;84;25720;-88
2022/10/05 01:16:21;;;;;;;15.50;9.63;;;;;;;10.72;86.04;101260.70;1687236;84;25975;-88
2022/10/05 01:18:53;;;;;;;19.57;10.53;;;;;;;10.72;86.03;101254.01;1679847;84;27568;-87
2022/10/05 01:21:26;;;;;;;22.80;10.75;;;;;;;10.74;86.10;101250.16;1690146;84;25842;-87
2022/10/05 01:24:20;;;;;;;17.35;9.43;;;;;;;10.78;86.09;101248.80;1682545;84;25887;-87
2022/10/05 01:27:10;;;;;;;20.10;10.00;;;;;;;10.78;86.03;101237.23;1642653;85;26488;-88
2022/10/05 01:29:51;;;;;;;17.67;10.45;;;;;;;10.78;86.00;101235.40;1619220;86;25674;-87
2022/10/05 01:32:38;;;;;;;19.17;10.48;;;;;;;10.79;86.06;101241.11;1685897;84;27492;-88
2022/10/05 01:35:13;;;;;;;20.97;10.80;;;;;;;10.77;86.08;101242.28;1684103;84;25798;-87
2022/10/05 01:38:11;;;;;;;19.73;10.48;;;;;;;10.79;86.01;101257.68;1677676;84;26418;-87
2022/10/05 01:41:02;;;;;;;19.30;10.50;;;;;;;10.78;85.99;101251.97;1681778;84;25832;-86
2022/10/05 01:43:47;;;;;;;20.10;10.53;;;;;;;10.76;85.92;101264.71;1673026;84;25844;-86
2022/10/05 01:46:38;;;;;;;18.73;10.45;;;;;;;10.74;86.02;101271.59;1678675;84;28739;-86
2022/10/05 01:49:33;;;;;;;;;;;;;;;10.74;86.06;101274.27;1676594;84;25758;-86
2022/10/05 01:52:29;;;;;;;19.90;9.48;;;;;;;10.75;85.97;101273.77;1675566;84;26426;-86
2022/10/05 01:55:10;;;;;;;14.98;9.63;;;;;;;10.69;85.92;101263.22;1681020;84;25986;-85
2022/10/05 01:57:51;;;;;;;17.48;10.30;;;;;;;10.67;85.89;101256.39;1684544;84;25873;-86
2022/10/05 02:00:19;;;;;;;21.05;10.90;;;;;;;10.67;85.95;101245.67;1667860;85;27542;-87
2022/10/05 02:03:03;;;;;;;19.07;11.25;;;;;;;10.69;85.80;101245.80;1692934;84;25650;-87
2022/10/05 02:05:54;;;;;;;19.45;10.82;;;;;;;10.69;85.69;101240.44;1676119;84;25360;-87
2022/10/05 02:08:33;;;;;;;21.68;10.98;;;;;;;10.69;85.61;101237.77;1683255;84;25819;-85
2022/10/05 02:11:07;;;;;;;16.73;10.13;;;;;;;10.70;85.49;101235.92;1678490;84;25806;-85
2022/10/05 02:13:43;;;;;;;18.45;10.43;;;;;;;10.68;85.41;101228.08;1673289;84;27657;-86
2022/10/05 02:16:30;;;;;;;19.23;10.95;;;;;;;10.68;85.29;101223.21;1675362;84;25347;-86
2022/10/05 02:19:13;;;;;;;15.95;10.00;;;;;;;10.66;85.22;101211.83;1662849;84;25855;-88
2022/10/05 02:21:46;;;;;;;16.80;10.10;;;;;;;10.63;85.29;101211.66;1675306;84;25570;-87
2022/10/05 02:24:21;;;;;;;18.70;9.88;;;;;;;10.61;85.12;101204.31;1683808;84;25773;-87
2022/10/05 02:26:50;;;;;;;21.07;10.20;;;;;;;10.60;85.11;101200.47;1632714;87;27657;-87
2022/10/05 02:29:20;;;;;;;17.80;10.20;;;;;;;10.58;85.10;101206.50;1688872;84;25880;-87
2022/10/05 02:31:52;;;;;;;18.40;10.17;;;;;;;10.56;85.01;101209.86;1683879;84;25906;-87
2022/10/05 02:34:38;;;;;;;22.90;10.03;;;;;;;10.54;85.00;101211.88;1684742;84;25810;-87
2022/10/05 02:37:53;;;;;;;19.67;10.40;;;;;;;10.53;85.03;101227.60;1687935;84;25839;-87
2022/10/05 02:40:51;;;;;;;17.65;9.60;;;;;;;10.51;85.19;101225.59;1685796;84;27546;-88
2022/10/05 02:43:51;;;;;;;;;;;;;;;10.49;85.28;101215.06;1685361;84;25784;-87
2022/10/05 02:46:29;;;;;;;17.95;9.30;;;;;;;10.49;85.39;101215.56;1676720;84;25847;-88
2022/10/05 02:49:10;;;;;;;18.32;10.25;;;;;;;10.46;85.58;101215.39;1676412;84;25939;-88
2022/10/05 02:52:22;;;;;;;17.42;9.58;;;;;;;10.43;85.63;101222.45;1648896;84;25871;-86
2022/10/05 02:54:55;;;;;;;;;;;;;;;10.41;85.75;101223.63;1675879;84;27964;-87
2022/10/05 02:57:27;;;;;;;18.30;9.33;;;;;;;10.41;85.86;101220.45;1669473;84;25967;-87
2022/10/05 03:00:05;;;;;;;14.75;9.15;;;;;;;10.37;86.02;101225.78;1677511;84;25784;-87
2022/10/05 03:03:04;;;;;;;16.48;8.75;;;;;;;10.38;86.10;101231.48;1678773;84;25895;-87
2022/10/05 03:05:40;;;;;;;19.00;9.98;;;;;;;10.38;86.21;101239.52;1681756;84;25952;-87
2022/10/05 03:08:18;;;;;;;15.60;8.80;;;;;;;10.38;86.25;101232.83;1688515;84;27727;-86
2022/10/05 03:11:25;;;;;;;15.38;10.63;;;;;;;10.40;86.31;101231.30;1684602;84;25872;-86
2022/10/05 03:14:03;;;;;;;20.05;9.85;;;;;;;10.42;86.36;101229.30;1685910;84;25780;-87
2022/10/05 03:16:53;;;;;;;15.60;8.63;;;;;;;10.43;86.43;101237.18;1688237;84;25854;-88
2022/10/05 03:19:40;;;;;;;16.75;9.73;;;;;;;10.43;86.51;101224.28;1654926;84;25961;-87
2022/10/05 03:22:59;;;;;;;17.20;9.83;;;;;;;10.42;86.58;101225.27;1568477;86;26221;-87
2022/10/05 03:25:46;;;;;;;16.52;9.15;;;;;;;10.43;86.59;101229.14;1691026;83;25777;-89
2022/10/05 03:29:04;;;;;;;16.32;10.35;;;;;;;10.45;86.58;101237.00;1694538;83;25951;-87
2022/10/05 03:31:45;;;;;;;14.83;9.55;;;;;;;10.46;86.56;101230.13;1665514;85;26360;-86
2022/10/05 03:34:27;;;;;;;19.57;8.88;;;;;;;10.43;86.56;101226.47;1690081;83;25781;-87
2022/10/05 03:36:59;;;;;;;17.27;9.63;;;;;;;10.44;86.61;101218.75;1631996;87;26930;-86
2022/10/05 03:39:38;;;;;;;18.10;9.80;;;;;;;10.44;86.56;101209.38;1662309;85;25904;-86
2022/10/05 03:42:43;;;;;;;22.13;10.60;;;;;;;10.45;86.53;101207.05;1662334;85;25779;-86
2022/10/05 03:45:15;;;;;;;18.35;10.75;;;;;;;10.46;86.52;101205.17;1644719;86;25778;-86
2022/10/05 03:47:49;;;;;;;19.60;11.25;;;;;;;10.46;86.48;101210.53;1690736;83;25863;-88
2022/10/05 03:50:40;;;;;;;19.27;10.38;;;;;;;10.43;86.45;101212.23;1635780;86;28390;-88
2022/10/05 03:53:12;;;;;;;20.45;11.48;;;;;;;10.41;86.44;101212.91;1665533;85;26294;-86
2022/10/05 03:55:52;;;;;;;22.15;11.53;;;;;;;10.37;86.56;101204.89;1634029;87;25912;-87
2022/10/05 03:58:33;;;;;;;21.75;11.50;;;;;;;10.35;86.65;101200.20;1678777;84;25930;-86
2022/10/05 04:01:03;;;;;;;;;;;;;;;10.34;86.68;101189.99;1690998;83;25857;-87
2022/10/05 04:03:40;;;;;;;23.85;11.78;;;;;;;10.31;86.75;101205.58;1693994;83;27482;-87
2022/10/05 04:06:23;;;;;;;19.87;11.73;;;;;;;10.26;86.92;101201.22;1681201;84;25373;-87
2022/10/05 04:09:17;;;;;;;24.92;11.78;;;;;;;10.23;86.96;101198.38;1680983;84;26068;-88
2022/10/05 04:11:52;;;;;;;21.82;12.73;;;;;;;10.19;87.06;101193.03;1640551;86;25845;-86
2022/10/05 04:14:25;;;;;;;21.50;12.07;;;;;;;10.16;87.12;101198.71;1631736;86;26504;-86
2022/10/05 04:16:59;;;;;;;21.50;11.30;;;;;;;10.15;87.18;101202.41;1644128;86;28307;-87
2022/10/05 04:19:48;;;;;;;19.42;11.65;;;;;;;10.16;87.23;101206.74;1640932;86;25809;-87
2022/10/05 04:22:23;;;;;;;20.08;11.70;;;;;;;10.18;87.20;101207.41;1689933;84;25838;-86
2022/10/05 04:25:19;;;;;;;21.05;12.10;;;;;;;10.18;87.15;101210.09;1691185;84;26251;-86
2022/10/05 04:28:03;;;;;;;20.32;11.57;;;;;;;10.19;87.11;101214.45;1660321;84;25946;-86
2022/10/05 04:30:34;;;;;;;24.40;12.15;;;;;;;10.16;86.98;101221.47;1682906;84;28300;-87
2022/10/05 04:33:01;;;;;;;19.95;11.88;;;;;;;10.15;87.06;101227.00;1643640;85;25929;-87
2022/10/05 04:35:41;;;;;;;18.90;10.90;;;;;;;10.14;87.03;101212.77;1643286;85;26248;-87
2022/10/05 04:38:32;;;;;;;18.57;10.45;;;;;;;10.13;86.90;101207.09;1627506;87;25929;-85
2022/10/05 04:41:26;;;;;;;19.60;10.55;;;;;;;10.13;86.91;101208.44;1626226;87;26350;-87
2022/10/05 04:44:13;;;;;;;23.07;11.80;;;;;;;10.14;86.82;101210.09;1644050;86;28414;-87
2022/10/05 04:46:55;;;;;;;19.12;11.48;;;;;;;10.12;86.79;101208.09;1691380;84;26345;-88
2022/10/05 04:49:45;;;;;;;16.77;11.33;;;;;;;10.12;86.76;101220.63;1653857;86;25796;-88
2022/10/05 04:52:34;;;;;;;23.47;11.68;;;;;;;10.13;86.71;101231.69;1689844;84;26387;-88
2022/10/05 04:55:21;;;;;;;19.75;10.08;;;;;;;10.12;86.49;101238.88;1654110;85;26444;-87
2022/10/05 04:58:25;;;;;;;15.40;10.00;;;;;;;10.10;86.35;101246.20;1674455;84;28221;-85
2022/10/05 05:01:03;;;;;;;17.15;10.23;;;;;;;10.08;86.29;101246.38;1689182;84;25835;-87
2022/10/05 05:04:14;;;;;;;15.65;9.98;;;;;;;10.07;86.38;101237.19;1682846;84;25813;-87
2022/10/05 05:07:06;;;;;;;22.82;9.93;;;;;;;10.08;86.49;101242.86;1685963;84;25839;-87
2022/10/05 05:09:52;;;;;;;18.48;10.48;;;;;;;10.09;86.63;101232.50;1683946;84;25612;-87
2022/10/05 05:12:39;;;;;;;17.45;10.13;;;;;;;10.09;86.79;101233.31;1686195;84;27462;-87
2022/10/05 05:15:20;;;;;;;17.37;10.58;;;;;;;10.09;86.95;101225.28;1685051;84;25922;-87
2022/10/05 05:18:20;;;;;;;20.43;10.43;;;;;;;10.10;87.07;101224.79;1680765;84;26060;-87
2022/10/05 05:21:13;;;;;;;19.20;11.00;;;;;;;10.10;87.20;101222.11;1668199;84;25698;-86
2022/10/05 05:24:12;;;;;;;18.62;10.13;;;;;;;10.11;87.33;101219.81;1692598;83;25893;-86
2022/10/05 05:26:59;;;;;;;16.93;10.32;;;;;;;10.12;87.38;101217.95;1678795;83;27490;-87
2022/10/05 05:29:44;;;;;;;18.82;9.70;;;;;;;10.13;87.46;101208.44;1679143;84;26040;-86
2022/10/05 05:32:39;;;;;;;20.57;10.70;;;;;;;10.14;87.48;101206.61;1683923;84;26346;-86
2022/10/05 05:35:56;;;;;;;15.95;10.98;;;;;;;10.15;87.56;101210.94;1686342;84;26262;-85
2022/10/05 05:38:38;;;;;;;18.98;9.45;;;;;;;10.14;87.63;101207.41;1678781;84;25814;-88
2022/10/05 05:41:28;;;;;;;13.10;8.68;;;;;;;10.11;87.82;101210.94;1676345;84;27583;-87
2022/10/05 05:44:25;;;;;;;17.00;9.90;;;;;;;10.13;88.00;101223.16;1689076;83;25988;-87
2022/10/05 05:47:01;;;;;;;19.10;11.97;;;;;;;10.15;88.12;101229.67;1691045;83;25927;-87
2022/10/05 05:50:02;;;;;;;20.82;11.73;;;;;;;10.16;88.19;101218.79;1688348;83;26443;-87
2022/10/05 05:52:49;;;;;;;15.88;9.75;;;;;;;10.18;88.28;101231.50;1682770;83;25921;-87
2022/10/05 05:55:23;;;;;;;18.92;10.05;;;;;;;10.20;88.42;101225.47;1684391;84;27538;-87
2022/10/05 05:57:59;;;;;;;15.75;10.00;;;;;;;10.23;88.46;101231.84;1686466;84;25921;-87
2022/10/05 06:00:56;;;;;;;19.77;9.65;;;;;;;10.26;88.56;101240.05;1689103;83;25705;-87
2022/10/05 06:03:46;;;;;;;18.70;10.63;;;;;;;10.26;88.58;101230.17;1657018;85;25892;-88
2022/10/05 06:06:16;;;;;;;17.23;11.05;;;;;;;10.24;88.52;101228.17;1659882;85;25958;-87
2022/10/05 06:08:52;;;;;;;16.23;9.65;;;;;;;10.23;88.68;101221.13;1658444;84;27635;-87
2022/10/05 06:11:56;;;;;;;17.37;9.60;;;;;;;10.26;88.76;101222.14;1683186;84;25774;-86
2022/10/05 06:14:38;;;;;;;17.05;9.75;;;;;;;10.28;88.83;101226.83;1692270;83;25890;-87
2022/10/05 06:17:13;;;;;;;14.15;9.98;;;;;;;10.31;89.04;101214.95;1684191;84;25800;-86
2022/10/05 06:19:42;;;;;;;14.58;9.20;;;;;;;10.33;89.14;101198.20;1686152;84;25770;-85
2022/10/05 06:22:29;;;;;;;14.60;8.63;;;;;;;10.35;89.26;101209.05;1683642;84;28349;-86
2022/10/05 06:25:02;;;;;;;18.10;8.93;;;;;;;10.39;89.45;101213.05;1688054;84;25911;-87
2022/10/05 06:28:02;;;;;;;14.05;9.10;;;;;;;10.42;89.52;101206.03;1689124;84;25911;-86
2022/10/05 06:31:01;;;;;;;17.85;9.45;;;;;;;10.48;89.63;101205.84;1692579;84;26286;-84
2022/10/05 06:34:13;;;;;;;13.88;8.80;;;;;;;10.52;89.87;101222.73;1692206;84;26194;-85
2022/10/05 06:36:52;;;;;;;15.78;8.75;;;;;;;10.60;89.99;101225.42;1678645;84;27472;-84
2022/10/05 06:39:51;;;;;;;18.37;9.15;;;;;;;10.66;90.01;101218.53;1677489;84;26420;-85
2022/10/05 06:42:45;;;;;;;16.52;8.58;;;;;;;10.69;90.00;101220.34;1682998;84;25926;-86
2022/10/05 06:46:06;;;;;;;13.62;8.98;;;;;;;10.75;90.03;101227.72;1637044;85;26025;-86
2022/10/05 06:49:16;;;;;;;15.75;8.78;;;;;;;10.78;90.09;101227.36;1687641;83;25746;-85
2022/10/05 06:51:58;;;;;;;15.60;8.70;;;;;;;10.83;90.14;101215.63;1590670;88;27529;-85
2022/10/05 06:54:57;;;;;;;17.32;8.78;;;;;;;10.90;89.99;101214.93;1671699;83;25990;-88
2022/10/05 06:57:42;;;;;;;12.95;7.83;;;;;;;10.93;89.81;101214.59;1672055;84;25843;-84
2022/10/05 07:00:23;;;;;;;12.50;8.23;;;;;;;10.97;89.76;101222.09;1676739;84;26511;-86
2022/10/05 07:03:44;;;;;;;14.28;8.10;;;;;;;11.00;89.67;101222.25;1680403;84;26260;-85
2022/10/05 07:06:19;;;;;;;15.05;8.40;;;;;;;11.04;89.76;101226.25;1688440;83;27630;-86
2022/10/05 07:09:13;;;;;;;15.30;7.37;;;;;;;11.09;89.75;101233.27;1689150;83;25762;-86
2022/10/05 07:11:50;;;;;;;12.10;7.83;;;;;;;11.14;89.75;101228.23;1679857;83;25752;-87
2022/10/05 07:15:02;;;;;;;14.40;8.35;;;;;;;11.17;89.65;101227.37;1685998;84;25872;-87
2022/10/05 07:18:08;;;;;;;14.10;9.10;;;;;;;11.22;89.84;101222.33;1685997;84;25324;-86
2022/10/05 07:21:01;;;;;;;14.65;7.75;;;;;;;11.31;89.86;101223.11;1611662;87;27554;-86
2022/10/05 07:23:47;;;;;;;16.27;8.00;;;;;;;11.38;89.86;101230.27;1581559;89;25371;-87
2022/10/05 07:26:42;;;;;;;14.83;7.60;;;;;;;11.45;89.86;101221.00;1666958;84;26326;-86
2022/10/05 07:29:50;;;;;;;18.10;8.48;;;;;;;11.51;89.70;101223.81;1652133;85;25819;-86
2022/10/05 07:32:45;;;;;;;13.72;8.15;;;;;;;11.57;89.73;101224.44;1663098;84;25963;-86
2022/10/05 07:39:03;;;;;;;16.00;8.50;;;;;;;11.70;89.64;101213.67;1663540;84;34946;-87
2022/10/05 07:41:44;;;;;;;11.30;7.60;;;;;;;11.76;89.49;101211.08;1687471;83;25859;-87
2022/10/05 07:44:42;;;;;;;11.70;8.10;;;;;;;11.83;89.48;101204.48;1683235;84;25941;-86
2022/10/05 07:47:17;;;;;;;15.45;7.65;;;;;;;11.89;89.24;101210.50;1680473;84;25822;-86
2022/10/05 07:50:02;;;;;;;12.28;7.67;;;;;;;11.96;89.26;101199.34;1691286;83;28257;-86
2022/10/05 07:52:39;;;;;;;17.55;8.28;;;;;;;12.02;89.33;101198.12;1675212;83;25559;-85
2022/10/05 07:55:21;;;;;;;14.40;7.28;;;;;;;12.10;89.28;101191.32;1673441;84;25717;-86
2022/10/05 07:58:17;;;;;;;;;;;;;;;12.17;89.01;101190.93;1682319;84;26410;-85
2022/10/05 08:00:57;;;;;;;10.38;6.08;;;;;;;12.26;89.05;101193.03;1671133;83;26255;-86
2022/10/05 08:03:41;;;;;;;12.20;7.30;;;;;;;12.33;88.98;101191.28;1688519;84;27555;-87
2022/10/05 08:06:13;;;;;;;13.40;7.25;;;;;;;12.42;89.06;101188.84;1684504;84;25791;-86
2022/10/05 08:08:45;;;;;;;11.05;7.30;;;;;;;12.51;88.80;101190.41;1677403;84;25292;-87
2022/10/05 08:11:26;;;;;;;13.58;8.48;;;;;;;12.59;88.32;101185.47;1677374;84;26036;-87
2022/10/05 08:14:15;;;;;;;14.10;7.40;;;;;;;12.63;88.15;101177.34;1642741;84;25913;-87
2022/10/05 08:16:45;;;;;;;9.70;6.47;;;;;;;12.72;88.47;101170.87;1650171;84;27491;-86
2022/10/05 08:19:33;;;;;;;11.55;7.15;;;;;;;12.79;88.23;101165.88;1677851;84;25660;-86
2022/10/05 08:22:08;;;;;;;11.78;6.65;;;;;;;12.85;88.01;101173.19;1671554;84;25830;-85
2022/10/05 08:24:52;;;;;;;10.25;6.97;;;;;;;12.90;87.79;101180.20;1646842;86;25922;-87
2022/10/05 08:27:47;;;;;;;10.13;6.67;;;;;;;12.96;87.49;101188.85;1675934;84;26466;-86
2022/10/05 08:30:15;;;;;;;8.38;5.97;;;;;;;12.99;87.36;101183.11;1676764;84;27473;-86
2022/10/05 08:32:59;;;;;;;11.33;6.87;;;;;;;13.05;87.44;101181.55;1675168;84;26070;-86
2022/10/05 08:35:46;;;;;;;14.28;6.03;;;;;;;13.09;86.88;101184.17;1686004;83;25858;-86
2022/10/05 08:38:16;;;;;;;11.00;6.05;;;;;;;13.14;87.05;101188.48;1686443;84;26465;-86
2022/10/05 08:41:09;;;;;;;13.65;6.80;;;;;;;13.19;86.89;101188.77;1682400;83;26004;-85
2022/10/05 08:44:09;;;;;;;10.65;5.60;;;;;;;13.26;87.07;101192.87;1695483;83;27484;-86
2022/10/05 08:47:08;;;;;;;11.45;5.83;;;;;;;13.33;86.84;101193.77;1648715;84;25922;-86
2022/10/05 08:50:26;;;;;;;11.50;5.65;;;;;;;13.38;86.57;101184.62;1690084;83;25915;-86
2022/10/05 08:53:07;;;;;;;13.65;7.25;;;;;;;13.45;86.81;101186.34;1642376;86;25794;-87
2022/10/05 08:56:25;;;;;;;9.55;6.22;;;;;;;13.52;86.55;101180.52;1635011;86;25907;-87
2022/10/05 08:59:28;;;;;;;12.33;5.75;;;;;;;13.60;86.61;101172.85;1629047;86;27492;-86
2022/10/05 09:02:27;;;;;;;12.28;5.55;;;;;;;13.68;86.25;101174.91;1691673;83;26063;-87
2022/10/05 09:05:19;;;;;;;9.48;5.28;;;;;;;13.77;86.46;101160.80;1673255;84;26071;-87
2022/10/05 09:08:19;;;;;;;10.98;6.00;;;;;;;13.86;86.07;101159.10;1687377;83;25897;-87
2022/10/05 09:11:07;;;;;;;13.35;5.90;;;;;;;13.95;86.18;101149.02;1681876;84;25920;-86
2022/10/05 09:14:04;;;;;;;12.18;5.60;;;;;;;14.03;85.75;101141.33;1688526;84;27133;-86
2022/10/05 09:17:27;;;;;;;9.83;5.40;;;;;;;14.11;85.42;101142.02;1682404;84;25339;-86
2022/10/05 09:20:31;;;;;;;10.80;6.00;;;;;;;14.15;84.95;101150.02;1691408;84;25491;-88
2022/10/05 09:23:24;;;;;;;12.37;5.70;;;;;;;14.20;85.07;101132.72;1677629;84;25987;-87
2022/10/05 09:26:21;;;;;;;12.23;5.70;;;;;;;14.26;85.10;101131.96;1681370;84;25708;-87
2022/10/05 09:29:17;;;;;;;9.33;5.10;;;;;;;14.31;84.90;101142.99;1685944;84;27448;-86
2022/10/05 09:32:39;;;;;;;11.40;4.92;;;;;;;14.36;84.74;101147.28;1687737;84;26436;-87
2022/10/05 09:35:40;;;;;;;10.85;6.30;;;;;;;14.41;84.23;101150.20;1681980;84;25904;-86
2022/10/05 09:38:44;;;;;;;10.00;5.00;;;;;;;14.46;84.00;101159.05;1686694;84;25935;-88
2022/10/05 09:41:46;;;;;;;10.13;5.30;;;;;;;14.52;83.99;101153.69;1694044;84;25788;-86
2022/10/05 09:44:47;;;;;;;12.82;4.70;;;;;;;14.59;83.96;101152.38;1687323;84;27482;-87
2022/10/05 09:47:31;;;;;;;7.58;5.33;;;;;;;14.66;83.88;101150.05;1677672;84;26040;-86
2022/10/05 09:50:45;;;;;;;8.78;5.05;;;;;;;14.73;83.42;101159.52;1685574;84;25865;-86
2022/10/05 09:53:46;;;;;;;9.48;4.97;;;;;;;14.80;83.61;101163.61;1675341;84;25822;-87
2022/10/05 09:56:33;;;;;;;11.08;5.33;;;;;;;14.88;83.64;101168.31;1681025;84;26473;-87
2022/10/05 09:59:20;;;;;;;12.82;4.85;;;;;;;14.94;83.32;101163.97;1694998;84;28301;-86
2022/10/05 10:02:18;;;;;;;7.53;4.53;;;;;;;15.01;83.00;101158.09;1648197;85;25826;-86
2022/10/05 10:05:30;;;;;;;9.23;5.33;;;;;;;15.10;83.15;101170.34;1641543;85;26004;-86
2022/10/05 10:08:06;;;;;;;7.42;5.65;;;;;;;15.20;82.19;101174.86;1685542;84;25795;-87
2022/10/05 10:10:55;;;;;;;7.85;4.90;;;;;;;15.26;81.81;101158.69;1682812;84;25858;-86
2022/10/05 10:13:52;;;;;;;8.15;4.25;;;;;;;15.36;81.40;101162.33;1684005;84;27640;-88
2022/10/05 10:16:36;;;;;;;13.98;5.60;;;;;;;15.47;81.21;101161.77;1633041;86;26085;-87
2022/10/05 10:19:31;;;;;;;10.00;5.05;;;;;;;15.60;80.91;101159.61;1652982;86;25322;-87
2022/10/05 10:22:20;;;;;;;7.30;4.50;;;;;;;15.73;81.39;101144.77;1670563;84;25466;-87
2022/10/05 10:25:21;;;;;;;8.20;4.22;;;;;;;15.89;81.24;101143.83;1689891;84;26361;-87
2022/10/05 10:28:18;;;;;;;7.42;4.53;;;;;;;16.02;80.66;101148.39;1646370;84;27580;-87
2022/10/05 10:31:11;;;;;;;7.08;3.47;;;;;;;16.11;80.13;101138.53;1650529;85;26000;-87
2022/10/05 10:34:07;;;;;;;10.18;4.37;;;;;;;16.21;79.24;101134.03;1673262;84;25773;-87
2022/10/05 10:37:02;;;;;;;6.60;3.95;;;;;;;16.30;79.29;101121.13;1692053;84;25800;-87
2022/10/05 10:40:06;;;;;;;8.23;4.05;;;;;;;16.38;78.99;101124.43;1677916;84;25786;-87
2022/10/05 10:42:57;;;;;;;5.00;3.98;;;;;;;16.45;78.51;101127.12;1686209;84;28280;-87
2022/10/05 10:45:54;;;;;;;9.20;3.67;;;;;;;16.50;77.58;101124.14;1679222;84;25846;-88
2022/10/05 10:48:50;;;;;;;5.47;3.52;;;;;;;16.57;78.05;101110.59;1680757;84;25858;-86
2022/10/05 10:51:39;;;;;;;6.62;3.80;;;;;;;16.65;77.91;101095.48;1687639;84;25887;-85
2022/10/05 10:54:29;;;;;;;6.60;3.20;;;;;;;16.72;77.21;101097.09;1683738;84;25608;-87
2022/10/05 10:57:07;;;;;;;4.93;3.67;;;;;;;16.71;76.18;101105.44;1677131;84;27479;-86
2022/10/05 11:00:18;;;;;;;4.62;3.47;;;;;;;16.69;76.07;101113.77;1693348;83;25878;-87
2022/10/05 11:02:58;;;;;;;6.25;3.80;;;;;;;16.73;76.17;101119.06;1683309;84;25707;-87
2022/10/05 11:05:47;;;;;;;5.30;3.55;;;;;;;16.75;75.26;101114.27;1682562;84;25899;-88
2022/10/05 11:08:51;;;;;;;7.72;3.85;;;;;;;16.76;75.16;101117.29;1658583;85;25583;-87
2022/10/05 11:11:49;;;;;;;6.37;4.10;;;;;;;16.80;75.48;101108.21;1635910;85;27476;-87
2022/10/05 11:14:36;;;;;;;7.62;3.87;;;;;;;16.88;75.43;101099.84;1684770;84;26350;-87
2022/10/05 11:17:23;;;;;;;9.88;4.37;;;;;;;16.97;75.64;101103.97;1685573;84;26487;-86
2022/10/05 11:20:21;;;;;;;7.37;3.20;;;;;;;17.04;75.31;101090.41;1674210;84;25792;-86
2022/10/05 11:23:43;;;;;;;9.10;4.55;;;;;;;17.06;74.39;101094.56;1678393;85;25789;-86
2022/10/05 11:26:50;;;;;;;5.67;3.58;;;;;;;17.05;74.36;101092.05;1679148;84;28284;-86
2022/10/05 11:29:53;;;;;;;7.22;4.05;;;;;;;17.04;74.33;101095.81;1661939;84;25951;-86
2022/10/05 11:32:50;;;;;;;6.22;3.87;;;;;;;17.04;74.17;101089.88;1674629;84;26473;-86
2022/10/05 11:35:23;;;;;;;6.65;3.90;;;;;;;17.04;74.10;101081.77;1646871;85;26018;-87
2022/10/05 11:38:16;;;;;;;7.75;4.00;;;;;;;17.04;73.99;101087.18;1681531;84;26034;-87
2022/10/05 11:41:13;;;;;;;10.00;4.35;;;;;;;17.05;74.14;101079.34;1618887;84;27498;-87
2022/10/05 11:44:18;;;;;;;7.80;4.00;;;;;;;17.07;74.27;101075.90;1682479;84;25832;-87
2022/10/05 11:47:01;;;;;;;6.45;3.90;;;;;;;17.09;73.94;101072.45;1678629;84;25769;-86
2022/10/05 11:50:14;;;;;;;6.95;4.37;;;;;;;17.07;73.53;101072.36;1681507;84;25939;-87
2022/10/05 11:52:52;;;;;;;6.22;4.17;;;;;;;17.07;73.28;101079.12;1683916;84;25757;-86
2022/10/05 11:55:23;;;;;;;8.65;4.67;;;;;;;17.08;73.65;101076.73;1690108;84;28266;-86
2022/10/05 11:58:07;;;;;;;7.45;4.67;;;;;;;17.12;74.12;101077.44;1680569;84;25777;-87
2022/10/05 12:00:45;;;;;;;7.60;4.75;;;;;;;17.17;74.10;101076.24;1674117;84;25852;-87
2022/10/05 12:03:32;;;;;;;5.95;3.80;;;;;;;17.23;73.82;101080.81;1685143;84;25777;-87
2022/10/05 12:06:22;;;;;;;8.68;4.28;;;;;;;17.30;73.55;101083.48;1675558;84;25807;-86
2022/10/05 12:09:32;;;;;;;10.98;4.28;;;;;;;17.35;72.96;101079.05;1681665;84;27594;-86
2022/10/05 12:12:20;;;;;;;11.40;4.67;;;;;;;17.38;72.39;101076.44;1683649;83;25996;-85
2022/10/05 12:14:55;;;;;;;9.43;4.85;;;;;;;17.42;72.92;101068.17;1694802;83;25804;-86
2022/10/05 12:17:51;;;;;;;10.15;5.20;;;;;;;17.45;72.05;101061.78;1677957;83;25960;-85
2022/10/05 12:20:41;;;;;;;7.78;3.98;;;;;;;17.48;72.01;101069.99;1694339;83;25936;-86
2022/10/05 12:23:18;;;;;;;12.82;4.28;;;;;;;17.47;71.41;101069.16;1689692;83;27485;-87
2022/10/05 12:26:09;;;;;;;10.32;4.22;;;;;;;17.46;71.36;101072.09;1679974;84;26050;-87
2022/10/05 12:28:40;;;;;;;8.75;3.83;;;;;;;17.47;71.11;101077.83;1653959;84;26131;-85
2022/10/05 12:31:38;;;;;;;6.08;3.12;;;;;;;17.46;70.80;101078.35;1680031;83;25898;-87
2022/10/05 12:34:22;;;;;;;4.72;3.67;;;;;;;17.47;70.27;101088.11;1679409;84;26504;-86
2022/10/05 12:36:57;;;;;;;6.58;4.15;;;;;;;17.45;70.41;101067.20;1683807;84;27578;-87
2022/10/05 12:39:49;;;;;;;7.62;3.85;;;;;;;17.47;70.60;101076.48;1674428;84;26033;-87
2022/10/05 12:42:33;;;;;;;7.05;4.12;;;;;;;17.48;70.83;101072.70;1680327;84;26115;-87
2022/10/05 12:45:17;;;;;;;8.20;4.28;;;;;;;17.50;70.58;101071.98;1686458;83;26293;-87
2022/10/05 12:48:24;;;;;;;7.60;4.45;;;;;;;17.51;70.23;101069.05;1689474;83;25839;-87
2022/10/05 12:51:10;;;;;;;6.15;3.77;;;;;;;17.55;71.06;101067.59;1688216;83;28770;-86
2022/10/05 12:54:04;;;;;;;10.35;4.80;;;;;;;17.62;71.13;101058.86;1680643;84;25955;-87
2022/10/05 12:56:58;;;;;;;8.28;4.60;;;;;;;17.66;71.09;101066.04;1661551;84;26439;-87